sensor_id;sensor_type;location;lat;lon;timestamp;P1;durP1;ratioP1;P2;durP2;ratioP2
22144;SDS011;11238;48.730;11.566;2022-10-16T00:00:33;8.82;;;1.85;;
22144;SDS011;11238;48.730;11.566;2022-10-16T00:03:00;4.05;;;1.65;;
22144;SDS011;11238;48.730;11.566;2022-10-16T00:05:27;1.52;;;1.40;;
22144;SDS011;11238;48.730;11.566;2022-10-16T00:07:53;10.63;;;1.90;;
22144;SDS011;11238;48.730;11.566;2022-10-16T00:10:19;6.05;;;1.67;;
22144;SDS011;11238;48.730;11.566;2022-10-16T00:12:45;6.63;;;1.80;;
22144;SDS011;11238;48.730;11.566;2022-10-16T00:15:10;9.02;;;1.80;;
22144;SDS011;11238;48.730;11.566;2022-10-16T00:17:37;4.05;;;2.03;;
22144;SDS011;11238;48.730;11.566;2022-10-16T00:20:03;11.05;;;2.15;;
22144;SDS011;11238;48.730;11.566;2022-10-16T00:22:30;4.47;;;2.13;;
22144;SDS011;11238;48.730;11.566;2022-10-16T00:24:56;6.45;;;1.90;;
22144;SDS011;11238;48.730;11.566;2022-10-16T00:27:21;4.68;;;2.17;;
22144;SDS011;11238;48.730;11.566;2022-10-16T00:29:51;9.10;;;2.50;;
22144;SDS011;11238;48.730;11.566;2022-10-16T00:32:17;9.88;;;2.10;;
22144;SDS011;11238;48.730;11.566;2022-10-16T00:34:44;3.75;;;2.00;;
22144;SDS011;11238;48.730;11.566;2022-10-16T00:37:11;9.32;;;2.30;;
22144;SDS011;11238;48.730;11.566;2022-10-16T00:39:37;4.97;;;2.13;;
22144;SDS011;11238;48.730;11.566;2022-10-16T00:42:03;6.45;;;2.20;;
22144;SDS011;11238;48.730;11.566;2022-10-16T00:44:43;5.90;;;2.10;;
22144;SDS011;11238;48.730;11.566;2022-10-16T00:47:10;7.93;;;2.65;;
22144;SDS011;11238;48.730;11.566;2022-10-16T00:49:40;7.85;;;2.13;;
22144;SDS011;11238;48.730;11.566;2022-10-16T00:52:06;4.90;;;2.38;;
22144;SDS011;11238;48.730;11.566;2022-10-16T00:54:33;3.55;;;2.30;;
22144;SDS011;11238;48.730;11.566;2022-10-16T00:57:00;6.05;;;2.28;;
22144;SDS011;11238;48.730;11.566;2022-10-16T00:59:30;10.02;;;2.30;;
22144;SDS011;11238;48.730;11.566;2022-10-16T01:02:02;7.40;;;2.30;;
22144;SDS011;11238;48.730;11.566;2022-10-16T01:04:31;3.72;;;2.40;;
22144;SDS011;11238;48.730;11.566;2022-10-16T01:10:01;8.57;;;2.58;;
22144;SDS011;11238;48.730;11.566;2022-10-16T01:13:08;7.60;;;2.00;;
22144;SDS011;11238;48.730;11.566;2022-10-16T01:15:46;4.13;;;1.95;;
22144;SDS011;11238;48.730;11.566;2022-10-16T01:18:19;8.82;;;2.47;;
22144;SDS011;11238;48.730;11.566;2022-10-16T01:20:54;7.10;;;2.45;;
22144;SDS011;11238;48.730;11.566;2022-10-16T01:31:32;9.65;;;2.25;;
22144;SDS011;11238;48.730;11.566;2022-10-16T01:34:15;13.70;;;2.47;;
22144;SDS011;11238;48.730;11.566;2022-10-16T01:36:49;10.48;;;2.60;;
22144;SDS011;11238;48.730;11.566;2022-10-16T01:39:20;4.03;;;2.20;;
22144;SDS011;11238;48.730;11.566;2022-10-16T01:41:53;6.25;;;2.15;;
22144;SDS011;11238;48.730;11.566;2022-10-16T01:44:25;5.60;;;2.28;;
22144;SDS011;11238;48.730;11.566;2022-10-16T01:46:54;6.40;;;2.65;;
22144;SDS011;11238;48.730;11.566;2022-10-16T01:49:22;3.13;;;2.05;;
22144;SDS011;11238;48.730;11.566;2022-10-16T01:51:50;3.13;;;2.03;;
22144;SDS011;11238;48.730;11.566;2022-10-16T01:54:19;4.18;;;2.08;;
22144;SDS011;11238;48.730;11.566;2022-10-16T01:56:48;5.43;;;2.10;;
22144;SDS011;11238;48.730;11.566;2022-10-16T01:59:16;6.45;;;2.17;;
22144;SDS011;11238;48.730;11.566;2022-10-16T02:01:47;8.70;;;2.20;;
22144;SDS011;11238;48.730;11.566;2022-10-16T02:06:59;3.03;;;2.03;;
22144;SDS011;11238;48.730;11.566;2022-10-16T02:09:25;3.03;;;2.10;;
22144;SDS011;11238;48.730;11.566;2022-10-16T02:11:55;6.60;;;2.20;;
22144;SDS011;11238;48.730;11.566;2022-10-16T02:14:25;3.65;;;2.00;;
22144;SDS011;11238;48.730;11.566;2022-10-16T02:16:51;6.55;;;2.10;;
22144;SDS011;11238;48.730;11.566;2022-10-16T02:19:17;7.95;;;2.50;;
22144;SDS011;11238;48.730;11.566;2022-10-16T02:21:49;2.65;;;2.20;;
22144;SDS011;11238;48.730;11.566;2022-10-16T02:27:06;3.65;;;2.08;;
22144;SDS011;11238;48.730;11.566;2022-10-16T02:29:44;7.75;;;2.35;;
22144;SDS011;11238;48.730;11.566;2022-10-16T02:32:16;3.70;;;2.00;;
22144;SDS011;11238;48.730;11.566;2022-10-16T02:34:46;3.13;;;1.90;;
22144;SDS011;11238;48.730;11.566;2022-10-16T02:37:14;4.15;;;2.00;;
22144;SDS011;11238;48.730;11.566;2022-10-16T02:39:41;3.40;;;2.00;;
22144;SDS011;11238;48.730;11.566;2022-10-16T02:42:11;3.72;;;2.05;;
22144;SDS011;11238;48.730;11.566;2022-10-16T02:44:38;9.98;;;2.10;;
22144;SDS011;11238;48.730;11.566;2022-10-16T02:47:04;4.40;;;1.98;;
22144;SDS011;11238;48.730;11.566;2022-10-16T02:49:30;6.18;;;2.00;;
22144;SDS011;11238;48.730;11.566;2022-10-16T02:51:55;3.63;;;2.03;;
22144;SDS011;11238;48.730;11.566;2022-10-16T02:54:21;3.95;;;2.30;;
22144;SDS011;11238;48.730;11.566;2022-10-16T02:56:47;4.78;;;2.03;;
22144;SDS011;11238;48.730;11.566;2022-10-16T02:59:13;5.13;;;1.90;;
22144;SDS011;11238;48.730;11.566;2022-10-16T03:01:39;5.00;;;1.88;;
22144;SDS011;11238;48.730;11.566;2022-10-16T03:04:05;5.72;;;2.20;;
22144;SDS011;11238;48.730;11.566;2022-10-16T03:06:31;3.65;;;1.90;;
22144;SDS011;11238;48.730;11.566;2022-10-16T03:08:57;3.47;;;2.03;;
22144;SDS011;11238;48.730;11.566;2022-10-16T03:11:23;8.45;;;2.28;;
22144;SDS011;11238;48.730;11.566;2022-10-16T03:13:49;2.90;;;2.20;;
22144;SDS011;11238;48.730;11.566;2022-10-16T03:16:15;4.65;;;2.10;;
22144;SDS011;11238;48.730;11.566;2022-10-16T03:18:41;4.30;;;2.38;;
22144;SDS011;11238;48.730;11.566;2022-10-16T03:21:07;6.82;;;2.55;;
22144;SDS011;11238;48.730;11.566;2022-10-16T03:23:32;4.88;;;2.20;;
22144;SDS011;11238;48.730;11.566;2022-10-16T03:25:58;3.50;;;2.10;;
22144;SDS011;11238;48.730;11.566;2022-10-16T03:28:24;3.10;;;2.17;;
22144;SDS011;11238;48.730;11.566;2022-10-16T03:30:50;6.43;;;2.17;;
22144;SDS011;11238;48.730;11.566;2022-10-16T03:33:16;5.10;;;2.03;;
22144;SDS011;11238;48.730;11.566;2022-10-16T03:35:42;2.22;;;1.73;;
22144;SDS011;11238;48.730;11.566;2022-10-16T03:38:07;5.75;;;2.10;;
22144;SDS011;11238;48.730;11.566;2022-10-16T03:40:33;4.88;;;2.10;;
22144;SDS011;11238;48.730;11.566;2022-10-16T03:42:59;4.80;;;2.83;;
22144;SDS011;11238;48.730;11.566;2022-10-16T03:45:25;3.22;;;2.50;;
22144;SDS011;11238;48.730;11.566;2022-10-16T03:47:51;5.47;;;2.15;;
22144;SDS011;11238;48.730;11.566;2022-10-16T03:50:17;7.38;;;2.42;;
22144;SDS011;11238;48.730;11.566;2022-10-16T03:52:43;6.68;;;2.75;;
22144;SDS011;11238;48.730;11.566;2022-10-16T03:55:09;7.80;;;2.28;;
22144;SDS011;11238;48.730;11.566;2022-10-16T03:57:35;8.55;;;2.30;;
22144;SDS011;11238;48.730;11.566;2022-10-16T04:00:01;4.20;;;2.42;;
22144;SDS011;11238;48.730;11.566;2022-10-16T04:02:37;2.80;;;2.33;;
22144;SDS011;11238;48.730;11.566;2022-10-16T04:05:03;6.47;;;2.58;;
22144;SDS011;11238;48.730;11.566;2022-10-16T04:07:29;3.25;;;2.20;;
22144;SDS011;11238;48.730;11.566;2022-10-16T04:09:55;3.00;;;2.20;;
22144;SDS011;11238;48.730;11.566;2022-10-16T04:12:22;6.78;;;2.13;;
22144;SDS011;11238;48.730;11.566;2022-10-16T04:14:48;7.07;;;2.00;;
22144;SDS011;11238;48.730;11.566;2022-10-16T04:17:14;6.60;;;2.17;;
22144;SDS011;11238;48.730;11.566;2022-10-16T04:19:40;6.10;;;2.00;;
22144;SDS011;11238;48.730;11.566;2022-10-16T04:22:05;3.75;;;1.88;;
22144;SDS011;11238;48.730;11.566;2022-10-16T04:24:31;5.30;;;2.80;;
22144;SDS011;11238;48.730;11.566;2022-10-16T04:26:57;5.70;;;2.50;;
22144;SDS011;11238;48.730;11.566;2022-10-16T04:29:22;4.43;;;2.03;;
22144;SDS011;11238;48.730;11.566;2022-10-16T04:31:48;2.20;;;1.80;;
22144;SDS011;11238;48.730;11.566;2022-10-16T04:34:14;10.48;;;2.50;;
22144;SDS011;11238;48.730;11.566;2022-10-16T04:36:40;5.45;;;2.13;;
22144;SDS011;11238;48.730;11.566;2022-10-16T04:39:05;8.43;;;2.28;;
22144;SDS011;11238;48.730;11.566;2022-10-16T04:41:32;4.18;;;2.20;;
22144;SDS011;11238;48.730;11.566;2022-10-16T04:43:58;7.13;;;2.15;;
22144;SDS011;11238;48.730;11.566;2022-10-16T04:46:24;8.38;;;2.47;;
22144;SDS011;11238;48.730;11.566;2022-10-16T04:48:49;7.03;;;2.42;;
22144;SDS011;11238;48.730;11.566;2022-10-16T04:51:15;5.47;;;2.50;;
22144;SDS011;11238;48.730;11.566;2022-10-16T04:53:41;4.60;;;2.47;;
22144;SDS011;11238;48.730;11.566;2022-10-16T04:56:07;3.78;;;2.75;;
22144;SDS011;11238;48.730;11.566;2022-10-16T04:58:33;8.00;;;2.92;;
22144;SDS011;11238;48.730;11.566;2022-10-16T05:00:59;3.78;;;2.50;;
22144;SDS011;11238;48.730;11.566;2022-10-16T05:03:25;7.78;;;2.92;;
22144;SDS011;11238;48.730;11.566;2022-10-16T05:05:51;4.25;;;3.20;;
22144;SDS011;11238;48.730;11.566;2022-10-16T05:08:16;7.95;;;4.07;;
22144;SDS011;11238;48.730;11.566;2022-10-16T05:10:43;8.43;;;4.03;;
22144;SDS011;11238;48.730;11.566;2022-10-16T05:13:10;7.18;;;4.70;;
22144;SDS011;11238;48.730;11.566;2022-10-16T05:15:36;9.05;;;4.63;;
22144;SDS011;11238;48.730;11.566;2022-10-16T05:18:02;7.07;;;4.22;;
22144;SDS011;11238;48.730;11.566;2022-10-16T05:20:28;6.40;;;4.68;;
22144;SDS011;11238;48.730;11.566;2022-10-16T05:22:54;4.65;;;3.60;;
22144;SDS011;11238;48.730;11.566;2022-10-16T05:25:21;5.10;;;4.20;;
22144;SDS011;11238;48.730;11.566;2022-10-16T05:27:47;9.70;;;4.38;;
22144;SDS011;11238;48.730;11.566;2022-10-16T05:30:14;9.52;;;4.38;;
22144;SDS011;11238;48.730;11.566;2022-10-16T05:32:40;12.43;;;4.25;;
22144;SDS011;11238;48.730;11.566;2022-10-16T05:35:06;9.48;;;6.85;;
22144;SDS011;11238;48.730;11.566;2022-10-16T05:37:32;11.02;;;7.22;;
22144;SDS011;11238;48.730;11.566;2022-10-16T05:39:58;8.35;;;6.00;;
22144;SDS011;11238;48.730;11.566;2022-10-16T05:42:24;12.68;;;4.30;;
22144;SDS011;11238;48.730;11.566;2022-10-16T05:44:50;10.50;;;4.00;;
22144;SDS011;11238;48.730;11.566;2022-10-16T05:47:17;7.55;;;3.58;;
22144;SDS011;11238;48.730;11.566;2022-10-16T05:49:43;7.63;;;3.67;;
22144;SDS011;11238;48.730;11.566;2022-10-16T05:52:08;6.28;;;3.92;;
22144;SDS011;11238;48.730;11.566;2022-10-16T05:54:34;5.07;;;3.75;;
22144;SDS011;11238;48.730;11.566;2022-10-16T05:57:00;7.78;;;3.78;;
22144;SDS011;11238;48.730;11.566;2022-10-16T05:59:27;6.45;;;4.00;;
22144;SDS011;11238;48.730;11.566;2022-10-16T06:01:52;13.77;;;4.38;;
22144;SDS011;11238;48.730;11.566;2022-10-16T06:04:19;8.40;;;2.90;;
22144;SDS011;11238;48.730;11.566;2022-10-16T06:06:44;6.85;;;3.33;;
22144;SDS011;11238;48.730;11.566;2022-10-16T06:09:10;4.10;;;3.10;;
22144;SDS011;11238;48.730;11.566;2022-10-16T06:11:36;5.28;;;3.65;;
22144;SDS011;11238;48.730;11.566;2022-10-16T06:14:02;5.00;;;3.58;;
22144;SDS011;11238;48.730;11.566;2022-10-16T06:16:32;9.05;;;3.83;;
22144;SDS011;11238;48.730;11.566;2022-10-16T06:18:59;5.22;;;3.92;;
22144;SDS011;11238;48.730;11.566;2022-10-16T06:21:26;5.55;;;3.70;;
22144;SDS011;11238;48.730;11.566;2022-10-16T06:23:54;5.55;;;3.65;;
22144;SDS011;11238;48.730;11.566;2022-10-16T06:26:22;5.40;;;4.40;;
22144;SDS011;11238;48.730;11.566;2022-10-16T06:28:50;10.70;;;4.00;;
22144;SDS011;11238;48.730;11.566;2022-10-16T06:31:16;7.75;;;3.72;;
22144;SDS011;11238;48.730;11.566;2022-10-16T06:33:42;3.75;;;3.13;;
22144;SDS011;11238;48.730;11.566;2022-10-16T06:36:10;10.75;;;2.95;;
22144;SDS011;11238;48.730;11.566;2022-10-16T06:38:38;9.52;;;2.40;;
22144;SDS011;11238;48.730;11.566;2022-10-16T06:41:04;5.82;;;2.63;;
22144;SDS011;11238;48.730;11.566;2022-10-16T06:43:32;7.45;;;2.22;;
22144;SDS011;11238;48.730;11.566;2022-10-16T06:46:00;6.63;;;2.28;;
22144;SDS011;11238;48.730;11.566;2022-10-16T06:48:27;4.68;;;2.10;;
22144;SDS011;11238;48.730;11.566;2022-10-16T06:50:55;5.45;;;2.10;;
22144;SDS011;11238;48.730;11.566;2022-10-16T06:53:25;4.75;;;2.00;;
22144;SDS011;11238;48.730;11.566;2022-10-16T06:55:53;2.15;;;1.83;;
22144;SDS011;11238;48.730;11.566;2022-10-16T06:58:19;5.85;;;2.35;;
22144;SDS011;11238;48.730;11.566;2022-10-16T07:00:45;3.70;;;2.03;;
22144;SDS011;11238;48.730;11.566;2022-10-16T07:03:12;5.13;;;2.60;;
22144;SDS011;11238;48.730;11.566;2022-10-16T07:05:38;2.80;;;2.22;;
22144;SDS011;11238;48.730;11.566;2022-10-16T07:08:05;5.25;;;2.50;;
22144;SDS011;11238;48.730;11.566;2022-10-16T07:10:32;3.55;;;2.00;;
22144;SDS011;11238;48.730;11.566;2022-10-16T07:13:01;9.65;;;3.65;;
22144;SDS011;11238;48.730;11.566;2022-10-16T07:15:27;5.38;;;2.67;;
22144;SDS011;11238;48.730;11.566;2022-10-16T07:17:53;5.57;;;2.60;;
22144;SDS011;11238;48.730;11.566;2022-10-16T07:20:19;4.93;;;2.80;;
22144;SDS011;11238;48.730;11.566;2022-10-16T07:22:46;3.38;;;2.42;;
22144;SDS011;11238;48.730;11.566;2022-10-16T07:25:11;7.18;;;4.30;;
22144;SDS011;11238;48.730;11.566;2022-10-16T07:27:38;4.30;;;2.58;;
22144;SDS011;11238;48.730;11.566;2022-10-16T07:30:04;5.88;;;3.20;;
22144;SDS011;11238;48.730;11.566;2022-10-16T07:32:31;4.47;;;2.40;;
22144;SDS011;11238;48.730;11.566;2022-10-16T07:34:57;5.43;;;2.92;;
22144;SDS011;11238;48.730;11.566;2022-10-16T07:37:23;8.82;;;4.95;;
22144;SDS011;11238;48.730;11.566;2022-10-16T07:39:50;5.18;;;1.70;;
22144;SDS011;11238;48.730;11.566;2022-10-16T07:42:16;7.25;;;2.22;;
22144;SDS011;11238;48.730;11.566;2022-10-16T07:44:41;2.28;;;2.00;;
22144;SDS011;11238;48.730;11.566;2022-10-16T07:47:07;4.13;;;1.90;;
22144;SDS011;11238;48.730;11.566;2022-10-16T07:49:33;11.50;;;5.43;;
22144;SDS011;11238;48.730;11.566;2022-10-16T07:51:59;7.82;;;2.38;;
22144;SDS011;11238;48.730;11.566;2022-10-16T07:54:25;1.95;;;1.60;;
22144;SDS011;11238;48.730;11.566;2022-10-16T07:56:51;7.18;;;2.10;;
22144;SDS011;11238;48.730;11.566;2022-10-16T07:59:17;3.53;;;1.90;;
22144;SDS011;11238;48.730;11.566;2022-10-16T08:01:43;5.15;;;1.77;;
22144;SDS011;11238;48.730;11.566;2022-10-16T08:04:09;3.30;;;1.80;;
22144;SDS011;11238;48.730;11.566;2022-10-16T08:06:36;6.03;;;1.90;;
22144;SDS011;11238;48.730;11.566;2022-10-16T08:09:05;2.42;;;1.80;;
22144;SDS011;11238;48.730;11.566;2022-10-16T08:11:32;4.65;;;1.67;;
22144;SDS011;11238;48.730;11.566;2022-10-16T08:13:58;3.05;;;1.80;;
22144;SDS011;11238;48.730;11.566;2022-10-16T08:16:24;6.65;;;1.70;;
22144;SDS011;11238;48.730;11.566;2022-10-16T08:18:50;3.88;;;1.77;;
22144;SDS011;11238;48.730;11.566;2022-10-16T08:21:17;4.20;;;1.67;;
22144;SDS011;11238;48.730;11.566;2022-10-16T08:23:45;2.50;;;1.83;;
22144;SDS011;11238;48.730;11.566;2022-10-16T08:26:11;5.03;;;1.75;;
22144;SDS011;11238;48.730;11.566;2022-10-16T08:28:38;4.72;;;1.70;;
22144;SDS011;11238;48.730;11.566;2022-10-16T08:31:09;2.72;;;1.50;;
22144;SDS011;11238;48.730;11.566;2022-10-16T08:33:40;2.20;;;1.60;;
22144;SDS011;11238;48.730;11.566;2022-10-16T08:36:07;3.42;;;1.80;;
22144;SDS011;11238;48.730;11.566;2022-10-16T08:38:34;2.40;;;1.40;;
22144;SDS011;11238;48.730;11.566;2022-10-16T08:41:24;2.38;;;1.50;;
22144;SDS011;11238;48.730;11.566;2022-10-16T08:50:20;2.55;;;1.88;;
22144;SDS011;11238;48.730;11.566;2022-10-16T08:55:08;2.60;;;1.50;;
22144;SDS011;11238;48.730;11.566;2022-10-16T08:57:48;2.53;;;1.40;;
22144;SDS011;11238;48.730;11.566;2022-10-16T09:00:21;2.72;;;1.83;;
22144;SDS011;11238;48.730;11.566;2022-10-16T09:05:54;2.28;;;1.55;;
22144;SDS011;11238;48.730;11.566;2022-10-16T09:11:08;4.15;;;1.65;;
22144;SDS011;11238;48.730;11.566;2022-10-16T09:13:59;1.60;;;1.45;;
22144;SDS011;11238;48.730;11.566;2022-10-16T09:16:41;2.15;;;1.38;;
22144;SDS011;11238;48.730;11.566;2022-10-16T09:19:16;2.40;;;1.48;;
22144;SDS011;11238;48.730;11.566;2022-10-16T09:21:52;1.75;;;1.45;;
22144;SDS011;11238;48.730;11.566;2022-10-16T09:24:19;4.32;;;1.50;;
22144;SDS011;11238;48.730;11.566;2022-10-16T09:26:49;3.15;;;1.45;;
22144;SDS011;11238;48.730;11.566;2022-10-16T09:29:16;1.50;;;1.40;;
22144;SDS011;11238;48.730;11.566;2022-10-16T09:31:45;6.10;;;1.50;;
22144;SDS011;11238;48.730;11.566;2022-10-16T09:34:21;5.47;;;2.00;;
22144;SDS011;11238;48.730;11.566;2022-10-16T09:36:58;3.25;;;1.70;;
22144;SDS011;11238;48.730;11.566;2022-10-16T09:39:27;2.70;;;1.50;;
22144;SDS011;11238;48.730;11.566;2022-10-16T09:41:53;1.40;;;1.30;;
22144;SDS011;11238;48.730;11.566;2022-10-16T09:44:27;2.67;;;1.50;;
22144;SDS011;11238;48.730;11.566;2022-10-16T09:47:05;3.40;;;1.20;;
22144;SDS011;11238;48.730;11.566;2022-10-16T09:52:24;2.30;;;1.50;;
22144;SDS011;11238;48.730;11.566;2022-10-16T09:54:55;3.85;;;1.67;;
22144;SDS011;11238;48.730;11.566;2022-10-16T09:57:47;2.47;;;1.20;;
22144;SDS011;11238;48.730;11.566;2022-10-16T10:00:15;3.13;;;1.33;;
22144;SDS011;11238;48.730;11.566;2022-10-16T10:02:43;2.67;;;1.45;;
22144;SDS011;11238;48.730;11.566;2022-10-16T10:07:52;5.47;;;1.52;;
22144;SDS011;11238;48.730;11.566;2022-10-16T10:10:24;2.15;;;1.25;;
22144;SDS011;11238;48.730;11.566;2022-10-16T10:12:53;2.05;;;1.30;;
22144;SDS011;11238;48.730;11.566;2022-10-16T10:15:20;4.30;;;1.45;;
22144;SDS011;11238;48.730;11.566;2022-10-16T10:20:29;2.78;;;1.40;;
22144;SDS011;11238;48.730;11.566;2022-10-16T10:23:00;1.63;;;1.15;;
22144;SDS011;11238;48.730;11.566;2022-10-16T10:25:41;5.22;;;1.38;;
22144;SDS011;11238;48.730;11.566;2022-10-16T10:38:59;2.40;;;1.40;;
22144;SDS011;11238;48.730;11.566;2022-10-16T10:44:36;3.60;;;1.23;;
22144;SDS011;11238;48.730;11.566;2022-10-16T10:47:46;2.20;;;1.20;;
22144;SDS011;11238;48.730;11.566;2022-10-16T10:50:43;4.30;;;1.30;;
22144;SDS011;11238;48.730;11.566;2022-10-16T10:56:08;2.28;;;1.27;;
22144;SDS011;11238;48.730;11.566;2022-10-16T11:04:11;2.60;;;1.25;;
22144;SDS011;11238;48.730;11.566;2022-10-16T11:07:01;3.97;;;1.30;;
22144;SDS011;11238;48.730;11.566;2022-10-16T11:09:38;1.27;;;1.10;;
22144;SDS011;11238;48.730;11.566;2022-10-16T11:12:11;2.67;;;1.40;;
22144;SDS011;11238;48.730;11.566;2022-10-16T11:17:42;2.90;;;1.10;;
22144;SDS011;11238;48.730;11.566;2022-10-16T11:20:25;1.95;;;1.20;;
22144;SDS011;11238;48.730;11.566;2022-10-16T11:23:10;2.42;;;0.77;;
22144;SDS011;11238;48.730;11.566;2022-10-16T11:25:46;2.05;;;0.90;;
22144;SDS011;11238;48.730;11.566;2022-10-16T11:28:17;4.13;;;0.90;;
22144;SDS011;11238;48.730;11.566;2022-10-16T11:33:41;1.88;;;1.08;;
22144;SDS011;11238;48.730;11.566;2022-10-16T11:42:16;2.50;;;1.00;;
22144;SDS011;11238;48.730;11.566;2022-10-16T11:47:55;1.75;;;1.20;;
22144;SDS011;11238;48.730;11.566;2022-10-16T11:55:56;2.47;;;0.90;;
22144;SDS011;11238;48.730;11.566;2022-10-16T12:01:16;1.00;;;0.90;;
22144;SDS011;11238;48.730;11.566;2022-10-16T12:04:11;4.68;;;1.17;;
22144;SDS011;11238;48.730;11.566;2022-10-16T12:07:04;3.38;;;0.80;;
22144;SDS011;11238;48.730;11.566;2022-10-16T12:09:36;1.65;;;0.90;;
22144;SDS011;11238;48.730;11.566;2022-10-16T12:12:03;1.45;;;0.90;;
22144;SDS011;11238;48.730;11.566;2022-10-16T12:14:36;3.00;;;1.00;;
22144;SDS011;11238;48.730;11.566;2022-10-16T12:19:45;1.95;;;0.80;;
22144;SDS011;11238;48.730;11.566;2022-10-16T12:22:27;2.75;;;0.82;;
22144;SDS011;11238;48.730;11.566;2022-10-16T12:24:55;3.28;;;1.05;;
22144;SDS011;11238;48.730;11.566;2022-10-16T12:27:28;1.92;;;1.10;;
22144;SDS011;11238;48.730;11.566;2022-10-16T12:29:58;3.80;;;1.08;;
22144;SDS011;11238;48.730;11.566;2022-10-16T12:32:33;2.58;;;1.05;;
22144;SDS011;11238;48.730;11.566;2022-10-16T12:35:05;1.23;;;0.90;;
22144;SDS011;11238;48.730;11.566;2022-10-16T12:37:42;2.17;;;0.90;;
22144;SDS011;11238;48.730;11.566;2022-10-16T12:40:13;1.27;;;0.90;;
22144;SDS011;11238;48.730;11.566;2022-10-16T12:42:42;5.53;;;1.10;;
22144;SDS011;11238;48.730;11.566;2022-10-16T12:48:04;2.58;;;1.00;;
22144;SDS011;11238;48.730;11.566;2022-10-16T12:50:45;2.42;;;1.00;;
22144;SDS011;11238;48.730;11.566;2022-10-16T12:53:21;2.78;;;0.95;;
22144;SDS011;11238;48.730;11.566;2022-10-16T13:00:58;4.10;;;0.98;;
22144;SDS011;11238;48.730;11.566;2022-10-16T13:03:53;2.97;;;1.23;;
22144;SDS011;11238;48.730;11.566;2022-10-16T13:09:52;3.10;;;0.80;;
22144;SDS011;11238;48.730;11.566;2022-10-16T13:12:41;1.25;;;0.75;;
22144;SDS011;11238;48.730;11.566;2022-10-16T13:15:41;0.90;;;0.70;;
22144;SDS011;11238;48.730;11.566;2022-10-16T13:24:22;4.10;;;1.17;;
22144;SDS011;11238;48.730;11.566;2022-10-16T13:30:17;1.58;;;0.95;;
22144;SDS011;11238;48.730;11.566;2022-10-16T13:32:50;2.00;;;0.80;;
22144;SDS011;11238;48.730;11.566;2022-10-16T13:35:33;1.63;;;0.80;;
22144;SDS011;11238;48.730;11.566;2022-10-16T13:38:04;1.33;;;0.65;;
22144;SDS011;11238;48.730;11.566;2022-10-16T13:40:47;2.25;;;0.90;;
22144;SDS011;11238;48.730;11.566;2022-10-16T13:43:19;2.72;;;0.80;;
22144;SDS011;11238;48.730;11.566;2022-10-16T13:48:21;4.05;;;0.93;;
22144;SDS011;11238;48.730;11.566;2022-10-16T13:50:57;4.28;;;0.70;;
22144;SDS011;11238;48.730;11.566;2022-10-16T13:53:24;2.92;;;0.73;;
22144;SDS011;11238;48.730;11.566;2022-10-16T13:55:50;0.80;;;0.70;;
22144;SDS011;11238;48.730;11.566;2022-10-16T13:58:16;2.05;;;0.68;;
22144;SDS011;11238;48.730;11.566;2022-10-16T14:00:55;1.88;;;0.68;;
22144;SDS011;11238;48.730;11.566;2022-10-16T14:03:23;2.95;;;0.80;;
22144;SDS011;11238;48.730;11.566;2022-10-16T14:05:51;2.45;;;0.50;;
22144;SDS011;11238;48.730;11.566;2022-10-16T14:08:19;1.75;;;0.73;;
22144;SDS011;11238;48.730;11.566;2022-10-16T14:10:50;4.82;;;1.00;;
22144;SDS011;11238;48.730;11.566;2022-10-16T14:13:19;2.20;;;0.75;;
22144;SDS011;11238;48.730;11.566;2022-10-16T14:15:51;3.88;;;0.90;;
22144;SDS011;11238;48.730;11.566;2022-10-16T14:18:20;5.80;;;1.00;;
22144;SDS011;11238;48.730;11.566;2022-10-16T14:20:48;3.80;;;0.68;;
22144;SDS011;11238;48.730;11.566;2022-10-16T14:23:22;3.30;;;0.80;;
22144;SDS011;11238;48.730;11.566;2022-10-16T14:25:48;1.50;;;0.80;;
22144;SDS011;11238;48.730;11.566;2022-10-16T14:28:18;2.55;;;0.70;;
22144;SDS011;11238;48.730;11.566;2022-10-16T14:30:54;1.75;;;0.70;;
22144;SDS011;11238;48.730;11.566;2022-10-16T14:33:24;0.80;;;0.73;;
22144;SDS011;11238;48.730;11.566;2022-10-16T14:36:06;3.58;;;0.75;;
22144;SDS011;11238;48.730;11.566;2022-10-16T14:38:43;2.78;;;0.80;;
22144;SDS011;11238;48.730;11.566;2022-10-16T14:41:22;0.90;;;0.70;;
22144;SDS011;11238;48.730;11.566;2022-10-16T14:43:53;2.20;;;0.63;;
22144;SDS011;11238;48.730;11.566;2022-10-16T14:46:22;5.57;;;1.00;;
22144;SDS011;11238;48.730;11.566;2022-10-16T14:49:01;1.25;;;0.75;;
22144;SDS011;11238;48.730;11.566;2022-10-16T14:51:48;4.15;;;1.00;;
22144;SDS011;11238;48.730;11.566;2022-10-16T14:54:15;2.10;;;0.60;;
22144;SDS011;11238;48.730;11.566;2022-10-16T14:56:53;1.58;;;0.68;;
22144;SDS011;11238;48.730;11.566;2022-10-16T15:01:58;1.35;;;0.80;;
22144;SDS011;11238;48.730;11.566;2022-10-16T15:04:24;1.05;;;0.70;;
22144;SDS011;11238;48.730;11.566;2022-10-16T15:06:50;1.52;;;0.75;;
22144;SDS011;11238;48.730;11.566;2022-10-16T15:09:15;0.88;;;0.70;;
22144;SDS011;11238;48.730;11.566;2022-10-16T15:11:42;1.48;;;0.75;;
22144;SDS011;11238;48.730;11.566;2022-10-16T15:14:11;3.78;;;0.80;;
22144;SDS011;11238;48.730;11.566;2022-10-16T15:16:37;4.53;;;1.05;;
22144;SDS011;11238;48.730;11.566;2022-10-16T15:19:03;1.60;;;0.80;;
22144;SDS011;11238;48.730;11.566;2022-10-16T15:21:30;1.23;;;0.90;;
22144;SDS011;11238;48.730;11.566;2022-10-16T15:23:58;4.57;;;1.42;;
22144;SDS011;11238;48.730;11.566;2022-10-16T15:26:26;2.58;;;0.93;;
22144;SDS011;11238;48.730;11.566;2022-10-16T15:28:53;2.72;;;1.00;;
22144;SDS011;11238;48.730;11.566;2022-10-16T15:31:20;3.85;;;1.00;;
22144;SDS011;11238;48.730;11.566;2022-10-16T15:33:49;7.43;;;1.00;;
22144;SDS011;11238;48.730;11.566;2022-10-16T15:36:28;3.03;;;1.13;;
22144;SDS011;11238;48.730;11.566;2022-10-16T15:39:05;10.43;;;1.40;;
22144;SDS011;11238;48.730;11.566;2022-10-16T15:41:39;9.80;;;1.58;;
22144;SDS011;11238;48.730;11.566;2022-10-16T15:44:05;9.75;;;1.45;;
22144;SDS011;11238;48.730;11.566;2022-10-16T15:46:30;6.00;;;1.20;;
22144;SDS011;11238;48.730;11.566;2022-10-16T15:48:58;13.80;;;1.75;;
22144;SDS011;11238;48.730;11.566;2022-10-16T15:51:25;5.22;;;1.75;;
22144;SDS011;11238;48.730;11.566;2022-10-16T15:53:55;3.88;;;1.83;;
22144;SDS011;11238;48.730;11.566;2022-10-16T15:56:22;7.05;;;1.67;;
22144;SDS011;11238;48.730;11.566;2022-10-16T15:58:50;10.80;;;4.28;;
22144;SDS011;11238;48.730;11.566;2022-10-16T16:01:17;13.30;;;5.75;;
22144;SDS011;11238;48.730;11.566;2022-10-16T16:03:43;10.93;;;3.50;;
22144;SDS011;11238;48.730;11.566;2022-10-16T16:06:11;10.98;;;2.60;;
22144;SDS011;11238;48.730;11.566;2022-10-16T16:08:38;6.15;;;2.80;;
22144;SDS011;11238;48.730;11.566;2022-10-16T16:11:05;13.88;;;6.00;;
22144;SDS011;11238;48.730;11.566;2022-10-16T16:13:32;10.80;;;5.18;;
22144;SDS011;11238;48.730;11.566;2022-10-16T16:15:58;6.43;;;3.45;;
22144;SDS011;11238;48.730;11.566;2022-10-16T16:18:25;9.82;;;4.53;;
22144;SDS011;11238;48.730;11.566;2022-10-16T16:20:51;10.75;;;3.10;;
22144;SDS011;11238;48.730;11.566;2022-10-16T16:23:17;7.43;;;2.20;;
22144;SDS011;11238;48.730;11.566;2022-10-16T16:25:44;13.80;;;4.95;;
22144;SDS011;11238;48.730;11.566;2022-10-16T16:28:09;7.15;;;2.60;;
22144;SDS011;11238;48.730;11.566;2022-10-16T16:30:39;7.18;;;1.63;;
22144;SDS011;11238;48.730;11.566;2022-10-16T16:33:06;10.75;;;1.83;;
22144;SDS011;11238;48.730;11.566;2022-10-16T16:35:32;5.47;;;1.40;;
22144;SDS011;11238;48.730;11.566;2022-10-16T16:37:58;6.15;;;1.45;;
22144;SDS011;11238;48.730;11.566;2022-10-16T16:40:24;7.82;;;2.05;;